sensor_id;sensor_type;location;lat;lon;timestamp;temperature;humidity
42965;DHT22;28604;51.204;22.552;2023-12-14T00:01:25;2.90;95.40
42965;DHT22;28604;51.204;22.552;2023-12-14T00:03:51;2.90;95.40
42965;DHT22;28604;51.204;22.552;2023-12-14T00:06:17;2.90;95.40
42965;DHT22;28604;51.204;22.552;2023-12-14T00:08:43;2.90;95.40
42965;DHT22;28604;51.204;22.552;2023-12-14T00:11:11;2.90;95.40
42965;DHT22;28604;51.204;22.552;2023-12-14T00:13:37;2.90;95.40
42965;DHT22;28604;51.204;22.552;2023-12-14T00:16:04;2.90;95.40
42965;DHT22;28604;51.204;22.552;2023-12-14T00:18:31;2.90;95.30
42965;DHT22;28604;51.204;22.552;2023-12-14T00:20:57;2.90;95.30
42965;DHT22;28604;51.204;22.552;2023-12-14T00:23:23;2.90;95.40
42965;DHT22;28604;51.204;22.552;2023-12-14T00:25:49;3.00;95.40
42965;DHT22;28604;51.204;22.552;2023-12-14T00:28:16;3.00;95.40
42965;DHT22;28604;51.204;22.552;2023-12-14T00:30:42;2.90;95.40
42965;DHT22;28604;51.204;22.552;2023-12-14T00:33:08;2.90;95.40
42965;DHT22;28604;51.204;22.552;2023-12-14T00:35:34;3.00;95.40
42965;DHT22;28604;51.204;22.552;2023-12-14T00:38:00;3.00;95.30
42965;DHT22;28604;51.204;22.552;2023-12-14T00:40:26;3.00;95.40
42965;DHT22;28604;51.204;22.552;2023-12-14T00:42:52;3.00;95.40
42965;DHT22;28604;51.204;22.552;2023-12-14T00:45:18;3.00;95.40
42965;DHT22;28604;51.204;22.552;2023-12-14T00:47:44;3.00;95.40
42965;DHT22;28604;51.204;22.552;2023-12-14T00:50:10;3.00;95.40
42965;DHT22;28604;51.204;22.552;2023-12-14T00:52:36;3.00;95.40
42965;DHT22;28604;51.204;22.552;2023-12-14T00:55:02;3.00;95.40
42965;DHT22;28604;51.204;22.552;2023-12-14T00:57:28;3.00;95.40
42965;DHT22;28604;51.204;22.552;2023-12-14T00:59:54;3.00;95.40
42965;DHT22;28604;51.204;22.552;2023-12-14T01:02:20;3.00;95.40
42965;DHT22;28604;51.204;22.552;2023-12-14T01:04:47;3.10;95.40
42965;DHT22;28604;51.204;22.552;2023-12-14T01:07:13;3.00;95.40
42965;DHT22;28604;51.204;22.552;2023-12-14T01:09:39;3.10;95.40
42965;DHT22;28604;51.204;22.552;2023-12-14T01:12:05;3.10;95.40
42965;DHT22;28604;51.204;22.552;2023-12-14T01:14:31;3.00;95.40
42965;DHT22;28604;51.204;22.552;2023-12-14T01:16:57;3.00;95.40
42965;DHT22;28604;51.204;22.552;2023-12-14T01:19:23;3.10;95.40
42965;DHT22;28604;51.204;22.552;2023-12-14T01:21:51;3.10;95.40
42965;DHT22;28604;51.204;22.552;2023-12-14T01:24:17;3.10;95.40
42965;DHT22;28604;51.204;22.552;2023-12-14T01:26:43;3.10;95.40
42965;DHT22;28604;51.204;22.552;2023-12-14T01:29:09;3.10;95.40
42965;DHT22;28604;51.204;22.552;2023-12-14T01:31:37;3.10;95.40
42965;DHT22;28604;51.204;22.552;2023-12-14T01:34:02;3.10;95.40
42965;DHT22;28604;51.204;22.552;2023-12-14T01:36:29;3.10;95.40
42965;DHT22;28604;51.204;22.552;2023-12-14T01:38:54;3.10;95.40
42965;DHT22;28604;51.204;22.552;2023-12-14T01:41:21;3.10;95.40
42965;DHT22;28604;51.204;22.552;2023-12-14T01:43:46;3.10;95.40
42965;DHT22;28604;51.204;22.552;2023-12-14T01:46:13;3.10;95.40
42965;DHT22;28604;51.204;22.552;2023-12-14T01:48:40;3.00;95.40
42965;DHT22;28604;51.204;22.552;2023-12-14T01:51:06;3.00;95.40
42965;DHT22;28604;51.204;22.552;2023-12-14T01:53:32;3.00;95.40
42965;DHT22;28604;51.204;22.552;2023-12-14T01:55:58;3.00;95.40
42965;DHT22;28604;51.204;22.552;2023-12-14T01:58:24;3.00;95.40
42965;DHT22;28604;51.204;22.552;2023-12-14T02:01:04;3.10;95.40
42965;DHT22;28604;51.204;22.552;2023-12-14T02:03:33;3.00;95.40
42965;DHT22;28604;51.204;22.552;2023-12-14T02:06:00;3.10;95.40
42965;DHT22;28604;51.204;22.552;2023-12-14T02:08:27;3.10;95.40
42965;DHT22;28604;51.204;22.552;2023-12-14T02:10:55;3.00;95.40
42965;DHT22;28604;51.204;22.552;2023-12-14T02:13:21;3.00;95.40
42965;DHT22;28604;51.204;22.552;2023-12-14T02:15:47;3.10;95.40
42965;DHT22;28604;51.204;22.552;2023-12-14T02:18:23;3.00;95.40
42965;DHT22;28604;51.204;22.552;2023-12-14T02:20:50;3.00;95.40
42965;DHT22;28604;51.204;22.552;2023-12-14T02:23:15;3.00;95.50
42965;DHT22;28604;51.204;22.552;2023-12-14T02:25:42;3.00;95.40
42965;DHT22;28604;51.204;22.552;2023-12-14T02:28:08;3.00;95.50
42965;DHT22;28604;51.204;22.552;2023-12-14T02:30:34;3.10;95.50
42965;DHT22;28604;51.204;22.552;2023-12-14T02:33:00;3.10;95.40
42965;DHT22;28604;51.204;22.552;2023-12-14T02:35:26;3.00;95.40
42965;DHT22;28604;51.204;22.552;2023-12-14T02:37:52;3.00;95.50
42965;DHT22;28604;51.204;22.552;2023-12-14T02:40:18;3.00;95.60
42965;DHT22;28604;51.204;22.552;2023-12-14T02:42:44;3.10;95.40
42965;DHT22;28604;51.204;22.552;2023-12-14T02:45:10;3.00;95.40
42965;DHT22;28604;51.204;22.552;2023-12-14T02:47:36;3.00;95.40
42965;DHT22;28604;51.204;22.552;2023-12-14T02:50:02;3.00;95.40
42965;DHT22;28604;51.204;22.552;2023-12-14T02:52:28;3.00;95.50
42965;DHT22;28604;51.204;22.552;2023-12-14T02:54:55;3.00;95.40
42965;DHT22;28604;51.204;22.552;2023-12-14T02:57:20;3.00;95.40
42965;DHT22;28604;51.204;22.552;2023-12-14T02:59:46;3.00;95.40
42965;DHT22;28604;51.204;22.552;2023-12-14T03:02:13;3.00;95.50
42965;DHT22;28604;51.204;22.552;2023-12-14T03:04:40;3.00;95.40
42965;DHT22;28604;51.204;22.552;2023-12-14T03:07:06;3.00;95.40
42965;DHT22;28604;51.204;22.552;2023-12-14T03:09:33;3.00;95.40
42965;DHT22;28604;51.204;22.552;2023-12-14T03:12:02;3.00;95.40
42965;DHT22;28604;51.204;22.552;2023-12-14T03:14:32;3.00;95.40
42965;DHT22;28604;51.204;22.552;2023-12-14T03:16:58;3.00;95.50
42965;DHT22;28604;51.204;22.552;2023-12-14T03:19:24;3.00;95.40
42965;DHT22;28604;51.204;22.552;2023-12-14T03:21:50;3.00;95.40
42965;DHT22;28604;51.204;22.552;2023-12-14T03:24:16;3.00;95.40
42965;DHT22;28604;51.204;22.552;2023-12-14T03:26:42;3.00;95.40
42965;DHT22;28604;51.204;22.552;2023-12-14T03:29:08;3.00;95.40
42965;DHT22;28604;51.204;22.552;2023-12-14T03:31:34;3.00;95.40
42965;DHT22;28604;51.204;22.552;2023-12-14T03:34:01;3.00;95.40
42965;DHT22;28604;51.204;22.552;2023-12-14T03:36:28;3.00;95.30
42965;DHT22;28604;51.204;22.552;2023-12-14T03:38:54;3.10;95.40
42965;DHT22;28604;51.204;22.552;2023-12-14T03:41:20;3.00;95.40
42965;DHT22;28604;51.204;22.552;2023-12-14T03:43:46;3.00;95.40
42965;DHT22;28604;51.204;22.552;2023-12-14T03:46:12;3.00;95.40
42965;DHT22;28604;51.204;22.552;2023-12-14T03:48:38;3.00;95.40
42965;DHT22;28604;51.204;22.552;2023-12-14T03:51:05;3.10;95.40
42965;DHT22;28604;51.204;22.552;2023-12-14T03:53:31;3.00;95.40
42965;DHT22;28604;51.204;22.552;2023-12-14T03:56:00;3.00;95.40
42965;DHT22;28604;51.204;22.552;2023-12-14T03:58:27;3.00;95.40
42965;DHT22;28604;51.204;22.552;2023-12-14T04:00:52;3.00;95.40
42965;DHT22;28604;51.204;22.552;2023-12-14T04:03:19;3.00;95.40
42965;DHT22;28604;51.204;22.552;2023-12-14T04:05:44;3.00;95.50
42965;DHT22;28604;51.204;22.552;2023-12-14T04:08:11;3.00;95.40
42965;DHT22;28604;51.204;22.552;2023-12-14T04:10:36;2.90;95.50
42965;DHT22;28604;51.204;22.552;2023-12-14T04:13:02;3.00;95.50
42965;DHT22;28604;51.204;22.552;2023-12-14T04:15:28;3.00;95.50
42965;DHT22;28604;51.204;22.552;2023-12-14T04:17:54;3.00;95.50
42965;DHT22;28604;51.204;22.552;2023-12-14T04:20:20;3.00;95.50
42965;DHT22;28604;51.204;22.552;2023-12-14T04:22:46;3.00;95.50
42965;DHT22;28604;51.204;22.552;2023-12-14T04:25:14;3.00;95.50
42965;DHT22;28604;51.204;22.552;2023-12-14T04:27:40;3.00;95.50
42965;DHT22;28604;51.204;22.552;2023-12-14T04:30:06;3.00;95.50
42965;DHT22;28604;51.204;22.552;2023-12-14T04:32:37;3.00;95.50
42965;DHT22;28604;51.204;22.552;2023-12-14T04:35:03;3.00;95.50
42965;DHT22;28604;51.204;22.552;2023-12-14T04:37:30;3.00;95.50
42965;DHT22;28604;51.204;22.552;2023-12-14T04:39:57;3.00;95.50
42965;DHT22;28604;51.204;22.552;2023-12-14T04:42:23;3.00;95.50
42965;DHT22;28604;51.204;22.552;2023-12-14T04:44:49;3.00;95.40
42965;DHT22;28604;51.204;22.552;2023-12-14T04:47:16;3.00;95.50
42965;DHT22;28604;51.204;22.552;2023-12-14T04:49:42;3.00;95.50
42965;DHT22;28604;51.204;22.552;2023-12-14T04:52:08;3.00;95.50
42965;DHT22;28604;51.204;22.552;2023-12-14T04:54:34;3.00;95.50
42965;DHT22;28604;51.204;22.552;2023-12-14T04:57:04;3.00;95.50
42965;DHT22;28604;51.204;22.552;2023-12-14T04:59:30;3.00;95.50
42965;DHT22;28604;51.204;22.552;2023-12-14T05:01:56;3.00;95.50
42965;DHT22;28604;51.204;22.552;2023-12-14T05:04:22;3.00;95.50
42965;DHT22;28604;51.204;22.552;2023-12-14T05:06:48;3.00;95.50
42965;DHT22;28604;51.204;22.552;2023-12-14T05:09:13;3.00;95.50
42965;DHT22;28604;51.204;22.552;2023-12-14T05:11:40;3.00;95.50
42965;DHT22;28604;51.204;22.552;2023-12-14T05:14:06;3.00;95.50
42965;DHT22;28604;51.204;22.552;2023-12-14T05:16:33;3.00;95.50
42965;DHT22;28604;51.204;22.552;2023-12-14T05:18:59;3.00;95.50
42965;DHT22;28604;51.204;22.552;2023-12-14T05:21:25;3.00;95.50
42965;DHT22;28604;51.204;22.552;2023-12-14T05:23:51;3.00;95.50
42965;DHT22;28604;51.204;22.552;2023-12-14T05:26:17;3.00;95.50
42965;DHT22;28604;51.204;22.552;2023-12-14T05:28:44;3.00;95.50
42965;DHT22;28604;51.204;22.552;2023-12-14T05:31:10;3.00;95.50
42965;DHT22;28604;51.204;22.552;2023-12-14T05:33:37;3.00;95.50
42965;DHT22;28604;51.204;22.552;2023-12-14T05:36:04;3.00;95.50
42965;DHT22;28604;51.204;22.552;2023-12-14T05:38:34;3.00;95.50
42965;DHT22;28604;51.204;22.552;2023-12-14T05:41:01;3.00;95.50
42965;DHT22;28604;51.204;22.552;2023-12-14T05:43:26;3.00;95.50
42965;DHT22;28604;51.204;22.552;2023-12-14T05:45:53;3.00;95.50
42965;DHT22;28604;51.204;22.552;2023-12-14T05:48:18;3.00;95.40
42965;DHT22;28604;51.204;22.552;2023-12-14T05:50:45;3.00;95.40
42965;DHT22;28604;51.204;22.552;2023-12-14T05:53:11;3.00;95.50
42965;DHT22;28604;51.204;22.552;2023-12-14T05:55:37;3.00;95.40
42965;DHT22;28604;51.204;22.552;2023-12-14T05:58:03;3.00;95.40
42965;DHT22;28604;51.204;22.552;2023-12-14T06:00:30;3.00;95.50
42965;DHT22;28604;51.204;22.552;2023-12-14T06:02:55;3.00;95.50
42965;DHT22;28604;51.204;22.552;2023-12-14T06:05:22;3.00;95.50
42965;DHT22;28604;51.204;22.552;2023-12-14T06:07:48;3.00;95.40
42965;DHT22;28604;51.204;22.552;2023-12-14T06:10:14;3.00;95.60
42965;DHT22;28604;51.204;22.552;2023-12-14T06:12:40;3.00;95.50
42965;DHT22;28604;51.204;22.552;2023-12-14T06:15:07;3.00;95.50
42965;DHT22;28604;51.204;22.552;2023-12-14T06:17:33;3.00;95.50
42965;DHT22;28604;51.204;22.552;2023-12-14T06:20:00;2.90;95.50
42965;DHT22;28604;51.204;22.552;2023-12-14T06:22:26;3.00;95.80
42965;DHT22;28604;51.204;22.552;2023-12-14T06:24:52;3.00;95.40
42965;DHT22;28604;51.204;22.552;2023-12-14T06:27:18;3.00;95.40
42965;DHT22;28604;51.204;22.552;2023-12-14T06:29:44;3.00;95.40
42965;DHT22;28604;51.204;22.552;2023-12-14T06:32:11;3.00;95.40
42965;DHT22;28604;51.204;22.552;2023-12-14T06:34:37;3.00;95.50
42965;DHT22;28604;51.204;22.552;2023-12-14T06:37:03;3.00;95.50
42965;DHT22;28604;51.204;22.552;2023-12-14T06:39:29;3.00;95.40
42965;DHT22;28604;51.204;22.552;2023-12-14T06:41:55;3.00;95.40
42965;DHT22;28604;51.204;22.552;2023-12-14T06:44:21;3.00;95.40
42965;DHT22;28604;51.204;22.552;2023-12-14T06:46:47;3.00;95.30
42965;DHT22;28604;51.204;22.552;2023-12-14T06:49:13;3.00;95.30
42965;DHT22;28604;51.204;22.552;2023-12-14T06:51:39;3.00;95.40
42965;DHT22;28604;51.204;22.552;2023-12-14T06:54:05;3.00;95.60
42965;DHT22;28604;51.204;22.552;2023-12-14T06:56:31;2.90;95.50
42965;DHT22;28604;51.204;22.552;2023-12-14T06:58:57;3.00;95.50
42965;DHT22;28604;51.204;22.552;2023-12-14T07:01:23;3.00;95.50
42965;DHT22;28604;51.204;22.552;2023-12-14T07:03:49;2.90;95.50
42965;DHT22;28604;51.204;22.552;2023-12-14T07:06:16;2.90;95.40
42965;DHT22;28604;51.204;22.552;2023-12-14T07:08:43;3.00;95.50
42965;DHT22;28604;51.204;22.552;2023-12-14T07:11:10;3.00;95.60
42965;DHT22;28604;51.204;22.552;2023-12-14T07:13:37;2.90;95.50
42965;DHT22;28604;51.204;22.552;2023-12-14T07:16:06;3.00;95.40
42965;DHT22;28604;51.204;22.552;2023-12-14T07:18:34;3.00;95.50
42965;DHT22;28604;51.204;22.552;2023-12-14T07:21:02;3.00;95.40
42965;DHT22;28604;51.204;22.552;2023-12-14T07:23:28;3.00;95.40
42965;DHT22;28604;51.204;22.552;2023-12-14T07:25:54;3.10;95.40
42965;DHT22;28604;51.204;22.552;2023-12-14T07:28:21;3.00;95.30
42965;DHT22;28604;51.204;22.552;2023-12-14T07:30:47;3.10;95.30
42965;DHT22;28604;51.204;22.552;2023-12-14T07:33:17;3.10;95.30
42965;DHT22;28604;51.204;22.552;2023-12-14T07:35:43;3.00;95.20
42965;DHT22;28604;51.204;22.552;2023-12-14T07:38:13;3.00;95.40
42965;DHT22;28604;51.204;22.552;2023-12-14T07:40:39;3.00;95.40
42965;DHT22;28604;51.204;22.552;2023-12-14T07:43:06;3.00;95.40
42965;DHT22;28604;51.204;22.552;2023-12-14T07:45:33;3.00;95.40
42965;DHT22;28604;51.204;22.552;2023-12-14T07:48:00;3.00;95.50
42965;DHT22;28604;51.204;22.552;2023-12-14T07:50:26;3.00;95.40
42965;DHT22;28604;51.204;22.552;2023-12-14T07:52:52;3.10;95.40
42965;DHT22;28604;51.204;22.552;2023-12-14T07:55:19;3.10;95.30
42965;DHT22;28604;51.204;22.552;2023-12-14T07:57:45;3.10;95.30
42965;DHT22;28604;51.204;22.552;2023-12-14T08:00:12;3.10;95.30
42965;DHT22;28604;51.204;22.552;2023-12-14T08:02:38;3.10;95.40
42965;DHT22;28604;51.204;22.552;2023-12-14T08:05:05;3.20;95.40
42965;DHT22;28604;51.204;22.552;2023-12-14T08:07:32;3.20;95.30
42965;DHT22;28604;51.204;22.552;2023-12-14T08:09:58;3.20;95.30
42965;DHT22;28604;51.204;22.552;2023-12-14T08:12:25;3.20;95.30
42965;DHT22;28604;51.204;22.552;2023-12-14T08:14:51;3.20;95.30
42965;DHT22;28604;51.204;22.552;2023-12-14T08:17:17;3.20;95.30
42965;DHT22;28604;51.204;22.552;2023-12-14T08:19:44;3.30;95.30
42965;DHT22;28604;51.204;22.552;2023-12-14T08:22:11;3.30;95.30
42965;DHT22;28604;51.204;22.552;2023-12-14T08:24:42;3.20;95.30
42965;DHT22;28604;51.204;22.552;2023-12-14T08:27:08;3.30;95.30
42965;DHT22;28604;51.204;22.552;2023-12-14T08:29:34;3.20;95.30
42965;DHT22;28604;51.204;22.552;2023-12-14T08:32:00;3.30;95.40
42965;DHT22;28604;51.204;22.552;2023-12-14T08:34:28;3.30;95.50
42965;DHT22;28604;51.204;22.552;2023-12-14T08:36:54;3.30;95.30
42965;DHT22;28604;51.204;22.552;2023-12-14T08:39:20;3.30;95.30
42965;DHT22;28604;51.204;22.552;2023-12-14T08:41:46;3.30;95.40
42965;DHT22;28604;51.204;22.552;2023-12-14T08:44:13;3.30;95.30
42965;DHT22;28604;51.204;22.552;2023-12-14T08:46:45;3.40;95.30
42965;DHT22;28604;51.204;22.552;2023-12-14T08:49:13;3.40;95.30
42965;DHT22;28604;51.204;22.552;2023-12-14T08:51:39;3.40;95.30
42965;DHT22;28604;51.204;22.552;2023-12-14T08:54:06;3.40;95.20
42965;DHT22;28604;51.204;22.552;2023-12-14T08:56:34;3.40;95.20
42965;DHT22;28604;51.204;22.552;2023-12-14T08:59:01;3.40;95.20
42965;DHT22;28604;51.204;22.552;2023-12-14T09:01:30;3.40;95.30
42965;DHT22;28604;51.204;22.552;2023-12-14T09:03:55;3.50;95.30
42965;DHT22;28604;51.204;22.552;2023-12-14T09:06:22;3.50;95.20
42965;DHT22;28604;51.204;22.552;2023-12-14T09:08:47;3.50;95.20
42965;DHT22;28604;51.204;22.552;2023-12-14T09:11:14;3.50;95.20
42965;DHT22;28604;51.204;22.552;2023-12-14T09:13:43;3.50;95.20
42965;DHT22;28604;51.204;22.552;2023-12-14T09:16:09;3.60;95.20
42965;DHT22;28604;51.204;22.552;2023-12-14T09:18:36;3.60;95.20
42965;DHT22;28604;51.204;22.552;2023-12-14T09:21:02;3.60;95.20
42965;DHT22;28604;51.204;22.552;2023-12-14T09:23:29;3.60;95.10
42965;DHT22;28604;51.204;22.552;2023-12-14T09:25:56;3.60;95.10
42965;DHT22;28604;51.204;22.552;2023-12-14T09:28:23;3.70;95.20
42965;DHT22;28604;51.204;22.552;2023-12-14T09:30:49;3.70;95.10
42965;DHT22;28604;51.204;22.552;2023-12-14T09:33:15;3.80;95.10
42965;DHT22;28604;51.204;22.552;2023-12-14T09:35:42;3.80;95.10
42965;DHT22;28604;51.204;22.552;2023-12-14T09:38:08;3.80;95.10
42965;DHT22;28604;51.204;22.552;2023-12-14T09:40:34;3.80;95.10
42965;DHT22;28604;51.204;22.552;2023-12-14T09:43:00;3.80;95.10
42965;DHT22;28604;51.204;22.552;2023-12-14T09:45:29;3.80;95.10
42965;DHT22;28604;51.204;22.552;2023-12-14T09:48:00;3.80;95.10
42965;DHT22;28604;51.204;22.552;2023-12-14T09:50:26;3.80;95.10
42965;DHT22;28604;51.204;22.552;2023-12-14T09:52:52;3.80;95.00
42965;DHT22;28604;51.204;22.552;2023-12-14T09:55:18;3.90;95.10
42965;DHT22;28604;51.204;22.552;2023-12-14T09:57:44;3.90;95.10
42965;DHT22;28604;51.204;22.552;2023-12-14T10:00:11;3.90;95.10
42965;DHT22;28604;51.204;22.552;2023-12-14T10:02:40;3.80;95.00
42965;DHT22;28604;51.204;22.552;2023-12-14T10:05:10;3.80;95.00
42965;DHT22;28604;51.204;22.552;2023-12-14T10:07:43;3.90;95.10
42965;DHT22;28604;51.204;22.552;2023-12-14T10:10:11;3.90;95.00
42965;DHT22;28604;51.204;22.552;2023-12-14T10:12:52;3.90;94.90
42965;DHT22;28604;51.204;22.552;2023-12-14T10:15:21;3.90;95.00
42965;DHT22;28604;51.204;22.552;2023-12-14T10:17:53;3.90;94.70
42965;DHT22;28604;51.204;22.552;2023-12-14T10:20:21;3.80;95.00
42965;DHT22;28604;51.204;22.552;2023-12-14T10:22:52;3.90;94.90
42965;DHT22;28604;51.204;22.552;2023-12-14T10:25:19;3.80;94.90
42965;DHT22;28604;51.204;22.552;2023-12-14T10:27:47;3.80;94.90
42965;DHT22;28604;51.204;22.552;2023-12-14T10:30:14;4.00;95.00
42965;DHT22;28604;51.204;22.552;2023-12-14T10:32:41;3.90;94.90
42965;DHT22;28604;51.204;22.552;2023-12-14T10:35:08;3.90;94.90
42965;DHT22;28604;51.204;22.552;2023-12-14T10:37:37;4.00;94.90
42965;DHT22;28604;51.204;22.552;2023-12-14T10:40:06;3.90;94.90
42965;DHT22;28604;51.204;22.552;2023-12-14T10:42:34;3.80;94.70
42965;DHT22;28604;51.204;22.552;2023-12-14T10:45:03;3.80;94.90
42965;DHT22;28604;51.204;22.552;2023-12-14T10:47:30;3.90;95.00
42965;DHT22;28604;51.204;22.552;2023-12-14T10:49:57;3.90;94.90
42965;DHT22;28604;51.204;22.552;2023-12-14T10:52:25;3.90;94.90
42965;DHT22;28604;51.204;22.552;2023-12-14T10:54:58;3.90;94.90
42965;DHT22;28604;51.204;22.552;2023-12-14T10:57:26;3.80;94.90
42965;DHT22;28604;51.204;22.552;2023-12-14T11:00:00;3.90;95.00
42965;DHT22;28604;51.204;22.552;2023-12-14T11:02:26;3.90;94.90
42965;DHT22;28604;51.204;22.552;2023-12-14T11:04:54;3.80;95.00
42965;DHT22;28604;51.204;22.552;2023-12-14T11:07:45;3.90;94.80
42965;DHT22;28604;51.204;22.552;2023-12-14T11:10:11;3.80;94.90
42965;DHT22;28604;51.204;22.552;2023-12-14T11:12:37;3.90;94.90
42965;DHT22;28604;51.204;22.552;2023-12-14T11:15:07;3.90;94.90
42965;DHT22;28604;51.204;22.552;2023-12-14T11:17:35;3.80;94.90
42965;DHT22;28604;51.204;22.552;2023-12-14T11:20:24;3.90;94.90
42965;DHT22;28604;51.204;22.552;2023-12-14T11:22:51;3.90;94.90
42965;DHT22;28604;51.204;22.552;2023-12-14T11:25:23;3.90;94.90
42965;DHT22;28604;51.204;22.552;2023-12-14T11:27:49;3.90;94.80
42965;DHT22;28604;51.204;22.552;2023-12-14T11:30:16;3.90;94.90
42965;DHT22;28604;51.204;22.552;2023-12-14T11:32:42;3.90;94.90
42965;DHT22;28604;51.204;22.552;2023-12-14T11:35:08;3.90;94.90
42965;DHT22;28604;51.204;22.552;2023-12-14T11:37:37;3.90;94.90
42965;DHT22;28604;51.204;22.552;2023-12-14T11:40:04;3.90;94.90
42965;DHT22;28604;51.204;22.552;2023-12-14T11:42:33;4.00;94.90
42965;DHT22;28604;51.204;22.552;2023-12-14T11:44:59;4.00;94.80
42965;DHT22;28604;51.204;22.552;2023-12-14T11:47:25;4.00;94.90
42965;DHT22;28604;51.204;22.552;2023-12-14T11:49:51;4.00;94.90
42965;DHT22;28604;51.204;22.552;2023-12-14T11:52:18;4.00;94.80
42965;DHT22;28604;51.204;22.552;2023-12-14T11:54:44;4.00;94.80
42965;DHT22;28604;51.204;22.552;2023-12-14T11:57:12;4.00;94.80
42965;DHT22;28604;51.204;22.552;2023-12-14T11:59:59;4.00;94.80
42965;DHT22;28604;51.204;22.552;2023-12-14T12:02:25;4.00;94.80
42965;DHT22;28604;51.204;22.552;2023-12-14T12:04:52;3.90;94.80
42965;DHT22;28604;51.204;22.552;2023-12-14T12:07:19;4.00;94.90
42965;DHT22;28604;51.204;22.552;2023-12-14T12:09:45;4.00;94.80
42965;DHT22;28604;51.204;22.552;2023-12-14T12:12:12;4.00;94.80
42965;DHT22;28604;51.204;22.552;2023-12-14T12:14:39;4.00;94.80
42965;DHT22;28604;51.204;22.552;2023-12-14T12:17:05;4.00;94.80
42965;DHT22;28604;51.204;22.552;2023-12-14T12:19:36;4.00;94.70
42965;DHT22;28604;51.204;22.552;2023-12-14T12:22:08;4.00;94.70
42965;DHT22;28604;51.204;22.552;2023-12-14T12:24:34;4.10;94.80
42965;DHT22;28604;51.204;22.552;2023-12-14T12:27:00;4.10;94.80
42965;DHT22;28604;51.204;22.552;2023-12-14T12:29:28;4.10;94.70
42965;DHT22;28604;51.204;22.552;2023-12-14T12:31:55;4.10;94.70
42965;DHT22;28604;51.204;22.552;2023-12-14T12:34:21;4.10;94.70
42965;DHT22;28604;51.204;22.552;2023-12-14T12:36:48;4.10;94.70
42965;DHT22;28604;51.204;22.552;2023-12-14T12:39:13;4.10;94.70
42965;DHT22;28604;51.204;22.552;2023-12-14T12:41:40;4.20;94.70
42965;DHT22;28604;51.204;22.552;2023-12-14T12:44:08;4.10;94.60
42965;DHT22;28604;51.204;22.552;2023-12-14T12:46:35;4.20;94.60
42965;DHT22;28604;51.204;22.552;2023-12-14T12:49:02;4.20;94.60
42965;DHT22;28604;51.204;22.552;2023-12-14T12:51:28;4.20;94.60
42965;DHT22;28604;51.204;22.552;2023-12-14T12:53:55;4.10;94.60
42965;DHT22;28604;51.204;22.552;2023-12-14T12:56:24;4.10;94.60
42965;DHT22;28604;51.204;22.552;2023-12-14T12:58:54;4.10;94.40
42965;DHT22;28604;51.204;22.552;2023-12-14T13:01:23;4.10;94.10
42965;DHT22;28604;51.204;22.552;2023-12-14T13:03:57;4.00;94.40
42965;DHT22;28604;51.204;22.552;2023-12-14T13:06:25;4.10;94.40
42965;DHT22;28604;51.204;22.552;2023-12-14T13:08:52;4.00;94.40
42965;DHT22;28604;51.204;22.552;2023-12-14T13:11:18;4.00;94.40
42965;DHT22;28604;51.204;22.552;2023-12-14T13:13:44;4.10;94.40
42965;DHT22;28604;51.204;22.552;2023-12-14T13:16:11;4.00;94.40
42965;DHT22;28604;51.204;22.552;2023-12-14T13:18:40;4.00;94.40
42965;DHT22;28604;51.204;22.552;2023-12-14T13:21:07;4.10;94.20
42965;DHT22;28604;51.204;22.552;2023-12-14T13:23:34;4.00;94.40
42965;DHT22;28604;51.204;22.552;2023-12-14T13:26:07;4.00;94.40
42965;DHT22;28604;51.204;22.552;2023-12-14T13:28:34;4.00;94.30
42965;DHT22;28604;51.204;22.552;2023-12-14T13:31:00;4.10;94.20
42965;DHT22;28604;51.204;22.552;2023-12-14T13:33:26;4.00;94.30
42965;DHT22;28604;51.204;22.552;2023-12-14T13:35:52;3.90;94.30
42965;DHT22;28604;51.204;22.552;2023-12-14T13:38:18;4.00;94.40
42965;DHT22;28604;51.204;22.552;2023-12-14T13:40:45;4.00;94.40
42965;DHT22;28604;51.204;22.552;2023-12-14T13:43:11;3.90;94.20
42965;DHT22;28604;51.204;22.552;2023-12-14T13:45:38;3.90;94.30
42965;DHT22;28604;51.204;22.552;2023-12-14T13:48:04;3.90;94.60
42965;DHT22;28604;51.204;22.552;2023-12-14T13:50:30;3.90;94.30
42965;DHT22;28604;51.204;22.552;2023-12-14T13:52:57;4.00;94.30
42965;DHT22;28604;51.204;22.552;2023-12-14T13:55:23;4.00;94.30
42965;DHT22;28604;51.204;22.552;2023-12-14T13:57:49;4.00;94.40
42965;DHT22;28604;51.204;22.552;2023-12-14T14:00:15;3.90;94.40
42965;DHT22;28604;51.204;22.552;2023-12-14T14:02:42;3.90;94.40
42965;DHT22;28604;51.204;22.552;2023-12-14T14:05:08;3.90;94.50
42965;DHT22;28604;51.204;22.552;2023-12-14T14:07:34;3.80;94.50
42965;DHT22;28604;51.204;22.552;2023-12-14T14:10:00;3.80;94.50
42965;DHT22;28604;51.204;22.552;2023-12-14T14:12:26;3.80;94.50
42965;DHT22;28604;51.204;22.552;2023-12-14T14:14:52;3.80;94.50
42965;DHT22;28604;51.204;22.552;2023-12-14T14:17:18;3.80;94.50
42965;DHT22;28604;51.204;22.552;2023-12-14T14:19:46;3.80;94.50
42965;DHT22;28604;51.204;22.552;2023-12-14T14:22:12;3.80;94.50
42965;DHT22;28604;51.204;22.552;2023-12-14T14:24:39;3.80;94.50
42965;DHT22;28604;51.204;22.552;2023-12-14T14:27:05;3.80;94.60
42965;DHT22;28604;51.204;22.552;2023-12-14T14:29:31;3.80;94.60
42965;DHT22;28604;51.204;22.552;2023-12-14T14:31:57;3.80;94.60
42965;DHT22;28604;51.204;22.552;2023-12-14T14:34:23;3.80;94.60
42965;DHT22;28604;51.204;22.552;2023-12-14T14:36:49;3.80;94.60
42965;DHT22;28604;51.204;22.552;2023-12-14T14:39:15;3.80;94.60
42965;DHT22;28604;51.204;22.552;2023-12-14T14:41:44;3.80;94.70
42965;DHT22;28604;51.204;22.552;2023-12-14T14:44:11;3.80;94.70
42965;DHT22;28604;51.204;22.552;2023-12-14T14:46:37;3.80;94.70
42965;DHT22;28604;51.204;22.552;2023-12-14T14:49:04;3.80;94.80
42965;DHT22;28604;51.204;22.552;2023-12-14T14:51:30;3.70;94.70
42965;DHT22;28604;51.204;22.552;2023-12-14T14:53:57;3.80;94.70
42965;DHT22;28604;51.204;22.552;2023-12-14T14:56:22;3.70;94.70
42965;DHT22;28604;51.204;22.552;2023-12-14T14:58:49;3.70;94.70
42965;DHT22;28604;51.204;22.552;2023-12-14T15:01:15;3.70;94.70
42965;DHT22;28604;51.204;22.552;2023-12-14T15:03:41;3.70;94.70
42965;DHT22;28604;51.204;22.552;2023-12-14T15:06:07;3.70;94.70
42965;DHT22;28604;51.204;22.552;2023-12-14T15:08:33;3.70;94.70
42965;DHT22;28604;51.204;22.552;2023-12-14T15:10:59;3.70;94.70
42965;DHT22;28604;51.204;22.552;2023-12-14T15:13:25;3.70;94.60
42965;DHT22;28604;51.204;22.552;2023-12-14T15:15:51;3.70;94.70
42965;DHT22;28604;51.204;22.552;2023-12-14T15:18:17;3.80;94.70
42965;DHT22;28604;51.204;22.552;2023-12-14T15:20:43;3.70;94.70
42965;DHT22;28604;51.204;22.552;2023-12-14T15:23:09;3.70;94.70
42965;DHT22;28604;51.204;22.552;2023-12-14T15:25:35;3.70;94.70
42965;DHT22;28604;51.204;22.552;2023-12-14T15:28:02;3.70;94.70